Schenectady, NY (12008)

11:59 PM EDT on September 01, 2014 (GMT -0400)
Daily Gazette | Change Station
CLOSE
Current Station
Personal Weather Station
Location: Schenectady, NY
Elevation: 295 ft
Nearby Weather Stations

Elev 295 ft 42.83 °N, 73.92 °W | Updated 6 seconds ago

Mostly Cloudy
Mostly Cloudy
73.6 °F
Feels Like 71 °F
N
0.0
Wind Variable Wind from WSW
Gusts 0.0 mph

Today
High -- | Low -- °F
--% Chance of Precip.
Yesterday
High -- | Low -- °F
Precip. -- in
6:20 AM 7:30 PM
Waxing Crescent, 47% visible
Pressure 29.91 in
Visibility 10.0 miles
Clouds Few 6000 ft
Mostly Cloudy 10000 ft
Heat Index 71 °F
Dew Point 72 °F
Humidity 94%
Rainfall 0.00 in
Snow Depth Not available.
UV 0 out of 12
Pollen 6.90 out of 12
PM2.5 Good
Flu Activity Not available.
METAR KALB 020351Z 18005KT 10SM FEW060 BKN100 24/21 A2992 RMK AO2 SLP129 T02440206 $

More Conditions Fewer Conditions

Pressure 29.91 in
Visibility 10.0 miles
Clouds Few 6000 ft
Mostly Cloudy 10000 ft
Heat Index 71 °F
Dew Point 72 °F
Humidity 94%
Rainfall 0.00 in
Snow Depth Not available.
UV 0 out of 12
Pollen 6.90 out of 12
PM2.5 Good
Flu Activity Not available.
METAR KALB 020351Z 18005KT 10SM FEW060 BKN100 24/21 A2992 RMK AO2 SLP129 T02440206 $

More Conditions Fewer Conditions

10-Day Weather Forecast

Almanac

Astronomy

Sep. 01, 2014 Rise Set
Actual Time 6:20 AM EDT 7:30 PM EDT
Civil Twilight 5:51 AM EDT 7:59 PM EDT
Nautical Twilight 5:16 AM EDT 8:34 PM EDT
Astronomical Twilight 4:39 AM EDT 9:10 PM EDT
Moon 1:13 PM EDT (9/1) 11:19 PM EDT (9/1)
Length of Visible Light 14h 08m
Length of Day
13h 10m
Tomorrow will be 2m 48s shorter.
Waxing Crescent, 47% of the Moon is Illuminated
Today
Waxing Crescent
Sep 2
First Quarter
Sep 8
Full
Sep 15
Last Quarter
Sep 24
New

Today's Extremes

State Highs State Lows

Community

WunderPhotos

Upload Photos

1,749,557 photos uploaded!

WunderBlogs® & News

Nearby

Air Quality

  Air Quality AQ Index Pollutant
Yesterday Good
PM2.5
Yesterday Good
OZONE
Current Good
PM2.5
Monday Moderate
OZONE
Monday Good
PM2.5
Tuesday Moderate
PM2.5
Tuesday Good
OZONE

Snow Depth

Station Depth Elevation
No new snow has been reported.

Earthquake Activity

City Distance Mag. Time & Date
No recent earthquake activity has been reported nearby.
Minimum magnitude displayed is 2.5.

Coastal Water Temperatures

Place Temperature
No Stations Reporting

Nearby Weather Stations